Miller Cty, Ohio
Current Conditions -  °F | °C
As of 5:53 PM on Thursday 27 Nov 2014 (Local Time) from KDFI Reporting Station
Broken Clouds Broken Clouds  
Wind Chill: 21°   Ceiling: 6500
Heat Index: 31°   Visibility: 10mi
Dew Point: 22°   Wind: 14mph
Humidity: 69%   Direction: 300°WNW
Pressure: 30.26"   Gusts: 22mph
Location:  41.1039°N, 84.1317°W
Report Text: KDFI 272253Z AUTO 30012G19KT 10SM BKN065 M01/M06 A3026 RMK AO2 SNB12E32 SLP256 P0000 T10061056
Loading
Personal Weather Stations






























Interactive Weather Map New forecast layout! Learn more

10-Day Weather Forecast

Advertisements
Track Severe Weather on mobile